sensor_id;sensor_type;location;lat;lon;timestamp;pressure;altitude;pressure_sealevel;temperature
7389;BMP180;3735;50.136;11.062;2023-01-29T00:01:49;99346.00;;;-1.30
7389;BMP180;3735;50.136;11.062;2023-01-29T00:04:15;99359.00;;;-1.40
7389;BMP180;3735;50.136;11.062;2023-01-29T00:06:41;99362.00;;;-1.40
7389;BMP180;3735;50.136;11.062;2023-01-29T00:09:07;99357.00;;;-1.40
7389;BMP180;3735;50.136;11.062;2023-01-29T00:11:34;99358.00;;;-1.50
7389;BMP180;3735;50.136;11.062;2023-01-29T00:14:00;99350.00;;;-1.50
7389;BMP180;3735;50.136;11.062;2023-01-29T00:16:26;99353.00;;;-1.40
7389;BMP180;3735;50.136;11.062;2023-01-29T00:18:52;99344.00;;;-1.40
7389;BMP180;3735;50.136;11.062;2023-01-29T00:21:20;99338.00;;;-1.50
7389;BMP180;3735;50.136;11.062;2023-01-29T00:23:47;99346.00;;;-1.40
7389;BMP180;3735;50.136;11.062;2023-01-29T00:26:14;99322.00;;;-1.40
7389;BMP180;3735;50.136;11.062;2023-01-29T00:28:40;99344.00;;;-1.50
7389;BMP180;3735;50.136;11.062;2023-01-29T00:31:17;99342.00;;;-1.40
7389;BMP180;3735;50.136;11.062;2023-01-29T00:33:43;99339.00;;;-1.40
7389;BMP180;3735;50.136;11.062;2023-01-29T00:36:12;99341.00;;;-1.50
7389;BMP180;3735;50.136;11.062;2023-01-29T00:38:39;99345.00;;;-1.40
7389;BMP180;3735;50.136;11.062;2023-01-29T00:41:14;99337.00;;;-1.40
7389;BMP180;3735;50.136;11.062;2023-01-29T00:44:00;99331.00;;;-1.50
7389;BMP180;3735;50.136;11.062;2023-01-29T00:46:45;99332.00;;;-1.50
7389;BMP180;3735;50.136;11.062;2023-01-29T00:49:11;99325.00;;;-1.40
7389;BMP180;3735;50.136;11.062;2023-01-29T00:51:38;99325.00;;;-1.50
7389;BMP180;3735;50.136;11.062;2023-01-29T00:54:05;99333.00;;;-1.50
7389;BMP180;3735;50.136;11.062;2023-01-29T00:56:34;99317.00;;;-1.50
7389;BMP180;3735;50.136;11.062;2023-01-29T00:59:00;99324.00;;;-1.50
7389;BMP180;3735;50.136;11.062;2023-01-29T01:01:26;99328.00;;;-1.50
7389;BMP180;3735;50.136;11.062;2023-01-29T01:04:11;99331.00;;;-1.50
7389;BMP180;3735;50.136;11.062;2023-01-29T01:06:38;99332.00;;;-1.50
7389;BMP180;3735;50.136;11.062;2023-01-29T01:09:05;99331.00;;;-1.50
7389;BMP180;3735;50.136;11.062;2023-01-29T01:11:50;99333.00;;;-1.60
7389;BMP180;3735;50.136;11.062;2023-01-29T01:14:20;99325.00;;;-1.60
7389;BMP180;3735;50.136;11.062;2023-01-29T01:16:47;99326.00;;;-1.60
7389;BMP180;3735;50.136;11.062;2023-01-29T01:19:14;99332.00;;;-1.70
7389;BMP180;3735;50.136;11.062;2023-01-29T01:21:41;99326.00;;;-1.60
7389;BMP180;3735;50.136;11.062;2023-01-29T01:24:13;99316.00;;;-1.70
7389;BMP180;3735;50.136;11.062;2023-01-29T01:26:39;99305.00;;;-1.70
7389;BMP180;3735;50.136;11.062;2023-01-29T01:29:04;99315.00;;;-1.60
7389;BMP180;3735;50.136;11.062;2023-01-29T01:31:30;99322.00;;;-1.60
7389;BMP180;3735;50.136;11.062;2023-01-29T01:33:56;99320.00;;;-1.70
7389;BMP180;3735;50.136;11.062;2023-01-29T01:36:22;99315.00;;;-1.70
7389;BMP180;3735;50.136;11.062;2023-01-29T01:38:48;99315.00;;;-1.70
7389;BMP180;3735;50.136;11.062;2023-01-29T01:41:20;99314.00;;;-1.70
7389;BMP180;3735;50.136;11.062;2023-01-29T01:46:15;99320.00;;;-1.70
7389;BMP180;3735;50.136;11.062;2023-01-29T01:48:42;99312.00;;;-1.70
7389;BMP180;3735;50.136;11.062;2023-01-29T01:51:09;99315.00;;;-1.70
7389;BMP180;3735;50.136;11.062;2023-01-29T01:53:40;99308.00;;;-1.70
7389;BMP180;3735;50.136;11.062;2023-01-29T01:56:13;99296.00;;;-1.80
7389;BMP180;3735;50.136;11.062;2023-01-29T01:58:49;99300.00;;;-1.80
7389;BMP180;3735;50.136;11.062;2023-01-29T02:01:16;99319.00;;;-1.80
7389;BMP180;3735;50.136;11.062;2023-01-29T02:04:04;99319.00;;;-1.80
7389;BMP180;3735;50.136;11.062;2023-01-29T02:06:51;99324.00;;;-1.80
7389;BMP180;3735;50.136;11.062;2023-01-29T02:10:10;99312.00;;;-1.80
7389;BMP180;3735;50.136;11.062;2023-01-29T02:12:37;99321.00;;;-1.80
7389;BMP180;3735;50.136;11.062;2023-01-29T02:15:04;99314.00;;;-1.80
7389;BMP180;3735;50.136;11.062;2023-01-29T02:17:31;99315.00;;;-1.80
7389;BMP180;3735;50.136;11.062;2023-01-29T02:20:13;99311.00;;;-1.80
7389;BMP180;3735;50.136;11.062;2023-01-29T02:23:14;99321.00;;;-1.90
7389;BMP180;3735;50.136;11.062;2023-01-29T02:28:57;99319.00;;;-1.80
7389;BMP180;3735;50.136;11.062;2023-01-29T02:34:33;99317.00;;;-1.90
7389;BMP180;3735;50.136;11.062;2023-01-29T02:37:33;99309.00;;;-1.90
7389;BMP180;3735;50.136;11.062;2023-01-29T02:43:08;99307.00;;;-1.90
7389;BMP180;3735;50.136;11.062;2023-01-29T02:45:59;99292.00;;;-2.00
7389;BMP180;3735;50.136;11.062;2023-01-29T02:48:40;99317.00;;;-2.00
7389;BMP180;3735;50.136;11.062;2023-01-29T02:51:18;99300.00;;;-1.90
7389;BMP180;3735;50.136;11.062;2023-01-29T02:54:41;99308.00;;;-2.00
7389;BMP180;3735;50.136;11.062;2023-01-29T02:57:42;99311.00;;;-2.00
7389;BMP180;3735;50.136;11.062;2023-01-29T03:00:20;99308.00;;;-2.00
7389;BMP180;3735;50.136;11.062;2023-01-29T03:02:58;99311.00;;;-2.00
7389;BMP180;3735;50.136;11.062;2023-01-29T03:05:57;99324.00;;;-2.00
7389;BMP180;3735;50.136;11.062;2023-01-29T03:08:40;99316.00;;;-2.00
7389;BMP180;3735;50.136;11.062;2023-01-29T03:11:15;99334.00;;;-2.00
7389;BMP180;3735;50.136;11.062;2023-01-29T03:13:56;99326.00;;;-2.00
7389;BMP180;3735;50.136;11.062;2023-01-29T03:16:53;99322.00;;;-2.10
7389;BMP180;3735;50.136;11.062;2023-01-29T03:19:35;99323.00;;;-2.00
7389;BMP180;3735;50.136;11.062;2023-01-29T03:22:06;99328.00;;;-2.00
7389;BMP180;3735;50.136;11.062;2023-01-29T03:27:36;99328.00;;;-2.00
7389;BMP180;3735;50.136;11.062;2023-01-29T03:30:26;99331.00;;;-2.00
7389;BMP180;3735;50.136;11.062;2023-01-29T03:33:14;99338.00;;;-2.10
7389;BMP180;3735;50.136;11.062;2023-01-29T03:36:10;99331.00;;;-2.10
7389;BMP180;3735;50.136;11.062;2023-01-29T03:38:38;99328.00;;;-2.10
7389;BMP180;3735;50.136;11.062;2023-01-29T03:41:31;99329.00;;;-2.10
7389;BMP180;3735;50.136;11.062;2023-01-29T03:44:14;99330.00;;;-2.20
7389;BMP180;3735;50.136;11.062;2023-01-29T03:47:11;99342.00;;;-2.20
7389;BMP180;3735;50.136;11.062;2023-01-29T03:49:46;99348.00;;;-2.20
7389;BMP180;3735;50.136;11.062;2023-01-29T03:52:24;99357.00;;;-2.20
7389;BMP180;3735;50.136;11.062;2023-01-29T03:55:21;99346.00;;;-2.20
7389;BMP180;3735;50.136;11.062;2023-01-29T03:57:57;99355.00;;;-2.20
7389;BMP180;3735;50.136;11.062;2023-01-29T04:01:00;99359.00;;;-2.20
7389;BMP180;3735;50.136;11.062;2023-01-29T04:03:38;99356.00;;;-2.20
7389;BMP180;3735;50.136;11.062;2023-01-29T04:06:18;99370.00;;;-2.20
7389;BMP180;3735;50.136;11.062;2023-01-29T04:09:11;99358.00;;;-2.20
7389;BMP180;3735;50.136;11.062;2023-01-29T04:11:46;99353.00;;;-2.20
7389;BMP180;3735;50.136;11.062;2023-01-29T04:14:13;99331.00;;;-2.20
7389;BMP180;3735;50.136;11.062;2023-01-29T04:16:46;99349.00;;;-2.20
7389;BMP180;3735;50.136;11.062;2023-01-29T04:19:13;99339.00;;;-2.20
7389;BMP180;3735;50.136;11.062;2023-01-29T04:21:40;99337.00;;;-2.20
7389;BMP180;3735;50.136;11.062;2023-01-29T04:24:07;99326.00;;;-2.20
7389;BMP180;3735;50.136;11.062;2023-01-29T04:29:49;99332.00;;;-2.30
7389;BMP180;3735;50.136;11.062;2023-01-29T04:41:21;99311.00;;;-2.40
7389;BMP180;3735;50.136;11.062;2023-01-29T04:44:11;99322.00;;;-2.50
7389;BMP180;3735;50.136;11.062;2023-01-29T04:50:01;99308.00;;;-2.40
7389;BMP180;3735;50.136;11.062;2023-01-29T04:52:50;99308.00;;;-2.50
7389;BMP180;3735;50.136;11.062;2023-01-29T04:55:43;99297.00;;;-2.50
7389;BMP180;3735;50.136;11.062;2023-01-29T05:00:52;99291.00;;;-2.40
7389;BMP180;3735;50.136;11.062;2023-01-29T05:03:22;99287.00;;;-2.40
7389;BMP180;3735;50.136;11.062;2023-01-29T05:05:50;99267.00;;;-2.40
7389;BMP180;3735;50.136;11.062;2023-01-29T05:08:22;99279.00;;;-2.40
7389;BMP180;3735;50.136;11.062;2023-01-29T05:10:51;99279.00;;;-2.40
7389;BMP180;3735;50.136;11.062;2023-01-29T05:13:20;99282.00;;;-2.50
7389;BMP180;3735;50.136;11.062;2023-01-29T05:16:26;99269.00;;;-2.50
7389;BMP180;3735;50.136;11.062;2023-01-29T05:18:54;99276.00;;;-2.50
7389;BMP180;3735;50.136;11.062;2023-01-29T05:21:21;99288.00;;;-2.50
7389;BMP180;3735;50.136;11.062;2023-01-29T05:24:14;99270.00;;;-2.60
7389;BMP180;3735;50.136;11.062;2023-01-29T05:26:42;99280.00;;;-2.50
7389;BMP180;3735;50.136;11.062;2023-01-29T05:29:27;99272.00;;;-2.50
7389;BMP180;3735;50.136;11.062;2023-01-29T05:31:53;99267.00;;;-2.60
7389;BMP180;3735;50.136;11.062;2023-01-29T05:34:19;99253.00;;;-2.60
7389;BMP180;3735;50.136;11.062;2023-01-29T05:36:45;99275.00;;;-2.70
7389;BMP180;3735;50.136;11.062;2023-01-29T05:39:10;99258.00;;;-2.60
7389;BMP180;3735;50.136;11.062;2023-01-29T05:41:36;99277.00;;;-2.60
7389;BMP180;3735;50.136;11.062;2023-01-29T05:44:02;99264.00;;;-2.60
7389;BMP180;3735;50.136;11.062;2023-01-29T05:46:28;99289.00;;;-2.60
7389;BMP180;3735;50.136;11.062;2023-01-29T05:48:54;99297.00;;;-2.60
7389;BMP180;3735;50.136;11.062;2023-01-29T05:51:20;99293.00;;;-2.50
7389;BMP180;3735;50.136;11.062;2023-01-29T05:53:45;99277.00;;;-2.50
7389;BMP180;3735;50.136;11.062;2023-01-29T05:56:11;99284.00;;;-2.50
7389;BMP180;3735;50.136;11.062;2023-01-29T05:58:37;99284.00;;;-2.50
7389;BMP180;3735;50.136;11.062;2023-01-29T06:01:14;99284.00;;;-2.50
7389;BMP180;3735;50.136;11.062;2023-01-29T06:03:40;99287.00;;;-2.40
7389;BMP180;3735;50.136;11.062;2023-01-29T06:06:06;99291.00;;;-2.40
7389;BMP180;3735;50.136;11.062;2023-01-29T06:08:32;99296.00;;;-2.40
7389;BMP180;3735;50.136;11.062;2023-01-29T06:10:58;99290.00;;;-2.40
7389;BMP180;3735;50.136;11.062;2023-01-29T06:13:24;99290.00;;;-2.40
7389;BMP180;3735;50.136;11.062;2023-01-29T06:15:50;99293.00;;;-2.40
7389;BMP180;3735;50.136;11.062;2023-01-29T06:18:16;99295.00;;;-2.40
7389;BMP180;3735;50.136;11.062;2023-01-29T06:20:41;99307.00;;;-2.30
7389;BMP180;3735;50.136;11.062;2023-01-29T06:23:07;99289.00;;;-2.30
7389;BMP180;3735;50.136;11.062;2023-01-29T06:25:33;99287.00;;;-2.30
7389;BMP180;3735;50.136;11.062;2023-01-29T06:27:58;99293.00;;;-2.20
7389;BMP180;3735;50.136;11.062;2023-01-29T06:30:24;99286.00;;;-2.30
7389;BMP180;3735;50.136;11.062;2023-01-29T06:32:55;99296.00;;;-2.30
7389;BMP180;3735;50.136;11.062;2023-01-29T06:35:24;99292.00;;;-2.20
7389;BMP180;3735;50.136;11.062;2023-01-29T06:37:50;99272.00;;;-2.20
7389;BMP180;3735;50.136;11.062;2023-01-29T06:40:16;99281.00;;;-2.30
7389;BMP180;3735;50.136;11.062;2023-01-29T06:42:41;99275.00;;;-2.30
7389;BMP180;3735;50.136;11.062;2023-01-29T06:45:08;99277.00;;;-2.20
7389;BMP180;3735;50.136;11.062;2023-01-29T06:47:34;99285.00;;;-2.30
7389;BMP180;3735;50.136;11.062;2023-01-29T06:50:01;99284.00;;;-2.20
7389;BMP180;3735;50.136;11.062;2023-01-29T06:52:27;99287.00;;;-2.20
7389;BMP180;3735;50.136;11.062;2023-01-29T06:54:56;99277.00;;;-2.20
7389;BMP180;3735;50.136;11.062;2023-01-29T06:57:22;99286.00;;;-2.20
7389;BMP180;3735;50.136;11.062;2023-01-29T06:59:48;99293.00;;;-2.20
7389;BMP180;3735;50.136;11.062;2023-01-29T07:02:15;99297.00;;;-2.20
7389;BMP180;3735;50.136;11.062;2023-01-29T07:04:40;99290.00;;;-2.20
7389;BMP180;3735;50.136;11.062;2023-01-29T07:07:07;99306.00;;;-2.20
7389;BMP180;3735;50.136;11.062;2023-01-29T07:09:41;99309.00;;;-2.20
7389;BMP180;3735;50.136;11.062;2023-01-29T07:12:10;99317.00;;;-2.20
7389;BMP180;3735;50.136;11.062;2023-01-29T07:14:36;99312.00;;;-2.20
7389;BMP180;3735;50.136;11.062;2023-01-29T07:17:02;99308.00;;;-2.20
7389;BMP180;3735;50.136;11.062;2023-01-29T07:19:28;99319.00;;;-2.10
7389;BMP180;3735;50.136;11.062;2023-01-29T07:21:54;99312.00;;;-2.10
7389;BMP180;3735;50.136;11.062;2023-01-29T07:24:20;99315.00;;;-2.10
7389;BMP180;3735;50.136;11.062;2023-01-29T07:26:46;99300.00;;;-2.20
7389;BMP180;3735;50.136;11.062;2023-01-29T07:29:11;99310.00;;;-2.20
7389;BMP180;3735;50.136;11.062;2023-01-29T07:31:37;99292.00;;;-2.20
7389;BMP180;3735;50.136;11.062;2023-01-29T07:34:03;99289.00;;;-2.10
7389;BMP180;3735;50.136;11.062;2023-01-29T07:36:29;99288.00;;;-2.20
7389;BMP180;3735;50.136;11.062;2023-01-29T07:38:55;99290.00;;;-2.20
7389;BMP180;3735;50.136;11.062;2023-01-29T07:41:21;99271.00;;;-2.10
7389;BMP180;3735;50.136;11.062;2023-01-29T07:43:47;99295.00;;;-2.00
7389;BMP180;3735;50.136;11.062;2023-01-29T07:46:12;99294.00;;;-2.10
7389;BMP180;3735;50.136;11.062;2023-01-29T07:48:38;99293.00;;;-2.00
7389;BMP180;3735;50.136;11.062;2023-01-29T07:51:04;99291.00;;;-1.90
7389;BMP180;3735;50.136;11.062;2023-01-29T07:53:30;99282.00;;;-1.90
7389;BMP180;3735;50.136;11.062;2023-01-29T07:55:56;99286.00;;;-1.90
7389;BMP180;3735;50.136;11.062;2023-01-29T07:58:22;99288.00;;;-1.80
7389;BMP180;3735;50.136;11.062;2023-01-29T08:00:48;99286.00;;;-1.70
7389;BMP180;3735;50.136;11.062;2023-01-29T08:03:18;99298.00;;;-1.60
7389;BMP180;3735;50.136;11.062;2023-01-29T08:05:45;99317.00;;;-1.50
7389;BMP180;3735;50.136;11.062;2023-01-29T08:08:11;99314.00;;;-1.40
7389;BMP180;3735;50.136;11.062;2023-01-29T08:10:38;99331.00;;;-1.30
7389;BMP180;3735;50.136;11.062;2023-01-29T08:13:06;99332.00;;;-1.30
7389;BMP180;3735;50.136;11.062;2023-01-29T08:15:33;99326.00;;;-1.20
7389;BMP180;3735;50.136;11.062;2023-01-29T08:18:01;99331.00;;;-1.20
7389;BMP180;3735;50.136;11.062;2023-01-29T08:20:27;99335.00;;;-1.20
7389;BMP180;3735;50.136;11.062;2023-01-29T08:23:02;99341.00;;;-1.10
7389;BMP180;3735;50.136;11.062;2023-01-29T08:25:29;99345.00;;;-1.10
7389;BMP180;3735;50.136;11.062;2023-01-29T08:27:56;99352.00;;;-1.00
7389;BMP180;3735;50.136;11.062;2023-01-29T08:30:23;99352.00;;;-1.00
7389;BMP180;3735;50.136;11.062;2023-01-29T08:32:49;99354.00;;;-1.00
7389;BMP180;3735;50.136;11.062;2023-01-29T08:35:15;99365.00;;;-1.00
7389;BMP180;3735;50.136;11.062;2023-01-29T08:37:41;99362.00;;;-0.90
7389;BMP180;3735;50.136;11.062;2023-01-29T08:40:07;99363.00;;;-0.90
7389;BMP180;3735;50.136;11.062;2023-01-29T08:42:35;99353.00;;;-1.20
7389;BMP180;3735;50.136;11.062;2023-01-29T08:45:01;99356.00;;;-1.40
7389;BMP180;3735;50.136;11.062;2023-01-29T08:47:26;99349.00;;;-1.40
7389;BMP180;3735;50.136;11.062;2023-01-29T08:49:52;99357.00;;;-1.60
7389;BMP180;3735;50.136;11.062;2023-01-29T08:52:18;99348.00;;;-1.60
7389;BMP180;3735;50.136;11.062;2023-01-29T08:54:43;99346.00;;;-1.60
7389;BMP180;3735;50.136;11.062;2023-01-29T08:57:09;99342.00;;;-1.30
7389;BMP180;3735;50.136;11.062;2023-01-29T08:59:35;99328.00;;;-1.20
7389;BMP180;3735;50.136;11.062;2023-01-29T09:02:00;99313.00;;;-1.20
7389;BMP180;3735;50.136;11.062;2023-01-29T09:04:26;99323.00;;;-1.00
7389;BMP180;3735;50.136;11.062;2023-01-29T09:06:52;99324.00;;;-0.90
7389;BMP180;3735;50.136;11.062;2023-01-29T09:09:18;99306.00;;;-1.00
7389;BMP180;3735;50.136;11.062;2023-01-29T09:11:43;99291.00;;;-0.80
7389;BMP180;3735;50.136;11.062;2023-01-29T09:14:09;99280.00;;;-0.80
7389;BMP180;3735;50.136;11.062;2023-01-29T09:16:36;99289.00;;;-0.70
7389;BMP180;3735;50.136;11.062;2023-01-29T09:19:02;99291.00;;;-0.50
7389;BMP180;3735;50.136;11.062;2023-01-29T09:21:28;99292.00;;;-0.50
7389;BMP180;3735;50.136;11.062;2023-01-29T09:23:53;99305.00;;;-0.30
7389;BMP180;3735;50.136;11.062;2023-01-29T09:26:19;99313.00;;;-0.30
7389;BMP180;3735;50.136;11.062;2023-01-29T09:28:45;99318.00;;;-0.20
7389;BMP180;3735;50.136;11.062;2023-01-29T09:31:10;99323.00;;;-0.30
7389;BMP180;3735;50.136;11.062;2023-01-29T09:33:36;99311.00;;;-0.20
7389;BMP180;3735;50.136;11.062;2023-01-29T09:36:03;99317.00;;;-0.10
7389;BMP180;3735;50.136;11.062;2023-01-29T09:38:29;99330.00;;;-0.10
7389;BMP180;3735;50.136;11.062;2023-01-29T09:46:16;99363.00;;;0.10
7389;BMP180;3735;50.136;11.062;2023-01-29T09:48:44;99363.00;;;0.00
7389;BMP180;3735;50.136;11.062;2023-01-29T09:51:36;99379.00;;;0.00
7389;BMP180;3735;50.136;11.062;2023-01-29T09:54:31;99386.00;;;0.10
7389;BMP180;3735;50.136;11.062;2023-01-29T09:57:00;99393.00;;;0.10
7389;BMP180;3735;50.136;11.062;2023-01-29T09:59:30;99390.00;;;0.10
7389;BMP180;3735;50.136;11.062;2023-01-29T10:05:45;99370.00;;;-0.20
7389;BMP180;3735;50.136;11.062;2023-01-29T10:14:22;99330.00;;;-0.70
7389;BMP180;3735;50.136;11.062;2023-01-29T10:17:13;99326.00;;;-0.70
7389;BMP180;3735;50.136;11.062;2023-01-29T10:19:51;99320.00;;;-0.60
7389;BMP180;3735;50.136;11.062;2023-01-29T10:22:38;99316.00;;;-0.40
7389;BMP180;3735;50.136;11.062;2023-01-29T10:25:14;99318.00;;;-0.40
7389;BMP180;3735;50.136;11.062;2023-01-29T10:27:51;99320.00;;;-0.30
7389;BMP180;3735;50.136;11.062;2023-01-29T10:30:39;99323.00;;;-0.30
7389;BMP180;3735;50.136;11.062;2023-01-29T10:33:28;99316.00;;;-0.40
7389;BMP180;3735;50.136;11.062;2023-01-29T10:36:02;99310.00;;;-0.10
7389;BMP180;3735;50.136;11.062;2023-01-29T10:38:49;99291.00;;;0.10
7389;BMP180;3735;50.136;11.062;2023-01-29T10:47:28;99283.00;;;0.60
7389;BMP180;3735;50.136;11.062;2023-01-29T10:50:27;99257.00;;;0.80
7389;BMP180;3735;50.136;11.062;2023-01-29T11:01:15;99250.00;;;0.60
7389;BMP180;3735;50.136;11.062;2023-01-29T11:03:41;99250.00;;;0.70
7389;BMP180;3735;50.136;11.062;2023-01-29T11:06:17;99250.00;;;0.70
7389;BMP180;3735;50.136;11.062;2023-01-29T11:09:16;99251.00;;;0.80
7389;BMP180;3735;50.136;11.062;2023-01-29T11:11:50;99240.00;;;0.90
7389;BMP180;3735;50.136;11.062;2023-01-29T11:17:38;99209.00;;;1.00
7389;BMP180;3735;50.136;11.062;2023-01-29T11:20:24;99188.00;;;0.90
7389;BMP180;3735;50.136;11.062;2023-01-29T11:22:53;99180.00;;;1.20
7389;BMP180;3735;50.136;11.062;2023-01-29T11:25:21;99176.00;;;0.90
7389;BMP180;3735;50.136;11.062;2023-01-29T11:27:51;99184.00;;;0.90
7389;BMP180;3735;50.136;11.062;2023-01-29T11:30:32;99186.00;;;0.70
7389;BMP180;3735;50.136;11.062;2023-01-29T11:33:22;99183.00;;;0.70
7389;BMP180;3735;50.136;11.062;2023-01-29T11:35:49;99187.00;;;0.60
7389;BMP180;3735;50.136;11.062;2023-01-29T11:38:23;99185.00;;;0.70
7389;BMP180;3735;50.136;11.062;2023-01-29T11:40:50;99176.00;;;0.90
7389;BMP180;3735;50.136;11.062;2023-01-29T11:43:36;99170.00;;;0.60
7389;BMP180;3735;50.136;11.062;2023-01-29T11:46:05;99173.00;;;0.30
7389;BMP180;3735;50.136;11.062;2023-01-29T11:51:11;99167.00;;;0.90
7389;BMP180;3735;50.136;11.062;2023-01-29T11:53:54;99166.00;;;1.00
7389;BMP180;3735;50.136;11.062;2023-01-29T11:56:38;99173.00;;;0.80
7389;BMP180;3735;50.136;11.062;2023-01-29T11:59:05;99155.00;;;1.10
7389;BMP180;3735;50.136;11.062;2023-01-29T12:01:37;99137.00;;;0.80
7389;BMP180;3735;50.136;11.062;2023-01-29T12:04:21;99153.00;;;0.80
7389;BMP180;3735;50.136;11.062;2023-01-29T12:06:51;99142.00;;;0.90
7389;BMP180;3735;50.136;11.062;2023-01-29T12:09:21;99155.00;;;0.70
7389;BMP180;3735;50.136;11.062;2023-01-29T12:11:47;99142.00;;;1.10
7389;BMP180;3735;50.136;11.062;2023-01-29T12:14:32;99137.00;;;1.10
7389;BMP180;3735;50.136;11.062;2023-01-29T12:17:14;99132.00;;;1.10
7389;BMP180;3735;50.136;11.062;2023-01-29T12:19:52;99117.00;;;1.30
7389;BMP180;3735;50.136;11.062;2023-01-29T12:22:50;99117.00;;;1.20
7389;BMP180;3735;50.136;11.062;2023-01-29T12:25:46;99110.00;;;1.10
7389;BMP180;3735;50.136;11.062;2023-01-29T12:28:40;99108.00;;;1.20
7389;BMP180;3735;50.136;11.062;2023-01-29T12:31:34;99102.00;;;1.20
7389;BMP180;3735;50.136;11.062;2023-01-29T12:34:19;99097.00;;;1.10
7389;BMP180;3735;50.136;11.062;2023-01-29T12:37:35;99087.00;;;1.50
7389;BMP180;3735;50.136;11.062;2023-01-29T12:40:01;99094.00;;;1.30
7389;BMP180;3735;50.136;11.062;2023-01-29T12:42:31;99086.00;;;1.20
7389;BMP180;3735;50.136;11.062;2023-01-29T12:45:01;99096.00;;;0.90
7389;BMP180;3735;50.136;11.062;2023-01-29T12:48:10;99082.00;;;1.10
7389;BMP180;3735;50.136;11.062;2023-01-29T12:50:38;99074.00;;;0.90
7389;BMP180;3735;50.136;11.062;2023-01-29T12:53:31;99073.00;;;1.00
7389;BMP180;3735;50.136;11.062;2023-01-29T12:56:06;99056.00;;;1.20
7389;BMP180;3735;50.136;11.062;2023-01-29T12:58:47;99061.00;;;1.50
7389;BMP180;3735;50.136;11.062;2023-01-29T13:01:28;99065.00;;;1.30
7389;BMP180;3735;50.136;11.062;2023-01-29T13:04:10;99049.00;;;0.90
7389;BMP180;3735;50.136;11.062;2023-01-29T13:06:48;99076.00;;;0.90
7389;BMP180;3735;50.136;11.062;2023-01-29T13:09:25;99073.00;;;1.40
7389;BMP180;3735;50.136;11.062;2023-01-29T13:12:02;99064.00;;;1.00
7389;BMP180;3735;50.136;11.062;2023-01-29T13:14:47;99064.00;;;1.40
7389;BMP180;3735;50.136;11.062;2023-01-29T13:17:42;99071.00;;;1.30
7389;BMP180;3735;50.136;11.062;2023-01-29T13:20:34;99073.00;;;1.20
7389;BMP180;3735;50.136;11.062;2023-01-29T13:23:20;99062.00;;;1.00
7389;BMP180;3735;50.136;11.062;2023-01-29T13:25:50;99062.00;;;1.20
7389;BMP180;3735;50.136;11.062;2023-01-29T13:28:21;99056.00;;;1.20
7389;BMP180;3735;50.136;11.062;2023-01-29T13:31:18;99061.00;;;0.70
7389;BMP180;3735;50.136;11.062;2023-01-29T13:34:18;99063.00;;;0.90
7389;BMP180;3735;50.136;11.062;2023-01-29T13:36:52;99052.00;;;1.00
7389;BMP180;3735;50.136;11.062;2023-01-29T13:39:48;99037.00;;;1.80
7389;BMP180;3735;50.136;11.062;2023-01-29T13:42:22;99029.00;;;1.80
7389;BMP180;3735;50.136;11.062;2023-01-29T13:44:55;99037.00;;;2.10
7389;BMP180;3735;50.136;11.062;2023-01-29T13:47:29;99038.00;;;1.70
7389;BMP180;3735;50.136;11.062;2023-01-29T13:50:40;99044.00;;;1.70
7389;BMP180;3735;50.136;11.062;2023-01-29T13:53:19;99020.00;;;1.80
7389;BMP180;3735;50.136;11.062;2023-01-29T13:55:46;99030.00;;;1.70
7389;BMP180;3735;50.136;11.062;2023-01-29T13:58:18;99028.00;;;1.60
7389;BMP180;3735;50.136;11.062;2023-01-29T14:01:02;99018.00;;;1.70
7389;BMP180;3735;50.136;11.062;2023-01-29T14:13:46;99007.00;;;1.10
7389;BMP180;3735;50.136;11.062;2023-01-29T14:19:16;99008.00;;;1.30
7389;BMP180;3735;50.136;11.062;2023-01-29T14:21:49;99008.00;;;1.40
7389;BMP180;3735;50.136;11.062;2023-01-29T14:24:20;99002.00;;;1.80
7389;BMP180;3735;50.136;11.062;2023-01-29T14:26:53;99007.00;;;1.60
7389;BMP180;3735;50.136;11.062;2023-01-29T14:29:28;99008.00;;;1.80
7389;BMP180;3735;50.136;11.062;2023-01-29T14:34:34;99000.00;;;1.70
7389;BMP180;3735;50.136;11.062;2023-01-29T14:39:52;99003.00;;;1.90
7389;BMP180;3735;50.136;11.062;2023-01-29T14:42:38;99006.00;;;1.80
7389;BMP180;3735;50.136;11.062;2023-01-29T14:53:13;98974.00;;;1.30
7389;BMP180;3735;50.136;11.062;2023-01-29T14:55:48;98982.00;;;0.80
7389;BMP180;3735;50.136;11.062;2023-01-29T14:58:23;98976.00;;;0.80
7389;BMP180;3735;50.136;11.062;2023-01-29T15:00:53;98985.00;;;0.60
7389;BMP180;3735;50.136;11.062;2023-01-29T15:03:44;98981.00;;;0.30
7389;BMP180;3735;50.136;11.062;2023-01-29T15:06:18;98978.00;;;0.20
7389;BMP180;3735;50.136;11.062;2023-01-29T15:12:56;98965.00;;;0.00
7389;BMP180;3735;50.136;11.062;2023-01-29T15:15:33;98965.00;;;0.00
7389;BMP180;3735;50.136;11.062;2023-01-29T15:20:47;98966.00;;;-0.10
7389;BMP180;3735;50.136;11.062;2023-01-29T15:23:30;98968.00;;;-0.30
7389;BMP180;3735;50.136;11.062;2023-01-29T15:26:09;98969.00;;;-0.30
7389;BMP180;3735;50.136;11.062;2023-01-29T15:28:37;98970.00;;;-0.30
7389;BMP180;3735;50.136;11.062;2023-01-29T15:31:12;98978.00;;;-0.30
7389;BMP180;3735;50.136;11.062;2023-01-29T15:33:45;98971.00;;;-0.50
7389;BMP180;3735;50.136;11.062;2023-01-29T15:36:28;98975.00;;;-0.60
7389;BMP180;3735;50.136;11.062;2023-01-29T15:39:23;98968.00;;;-0.60
7389;BMP180;3735;50.136;11.062;2023-01-29T15:42:12;98967.00;;;-0.70
7389;BMP180;3735;50.136;11.062;2023-01-29T15:44:44;98952.00;;;-0.70
7389;BMP180;3735;50.136;11.062;2023-01-29T15:47:11;98963.00;;;-0.80
7389;BMP180;3735;50.136;11.062;2023-01-29T15:49:39;98964.00;;;-0.80
7389;BMP180;3735;50.136;11.062;2023-01-29T15:52:15;98967.00;;;-0.90
7389;BMP180;3735;50.136;11.062;2023-01-29T15:54:43;98970.00;;;-0.80
7389;BMP180;3735;50.136;11.062;2023-01-29T15:57:23;98969.00;;;-0.90
7389;BMP180;3735;50.136;11.062;2023-01-29T15:59:52;98954.00;;;-0.90
7389;BMP180;3735;50.136;11.062;2023-01-29T16:05:00;98971.00;;;-1.00
7389;BMP180;3735;50.136;11.062;2023-01-29T16:07:26;98962.00;;;-1.10
7389;BMP180;3735;50.136;11.062;2023-01-29T16:09:54;98967.00;;;-1.10
7389;BMP180;3735;50.136;11.062;2023-01-29T16:12:21;98978.00;;;-1.20
7389;BMP180;3735;50.136;11.062;2023-01-29T16:14:49;98966.00;;;-1.10
7389;BMP180;3735;50.136;11.062;2023-01-29T16:17:24;98974.00;;;-1.10
7389;BMP180;3735;50.136;11.062;2023-01-29T16:19:58;98960.00;;;-1.10
7389;BMP180;3735;50.136;11.062;2023-01-29T16:22:33;98971.00;;;-1.20
7389;BMP180;3735;50.136;11.062;2023-01-29T16:25:13;98965.00;;;-1.20
7389;BMP180;3735;50.136;11.062;2023-01-29T16:27:42;98959.00;;;-1.30
7389;BMP180;3735;50.136;11.062;2023-01-29T16:30:14;98967.00;;;-1.40
7389;BMP180;3735;50.136;11.062;2023-01-29T16:32:40;98975.00;;;-1.40
7389;BMP180;3735;50.136;11.062;2023-01-29T16:35:14;98972.00;;;-1.50
7389;BMP180;3735;50.136;11.062;2023-01-29T16:37:40;98968.00;;;-1.50
7389;BMP180;3735;50.136;11.062;2023-01-29T16:40:25;98964.00;;;-1.50
7389;BMP180;3735;50.136;11.062;2023-01-29T16:47:02;98968.00;;;-1.50
7389;BMP180;3735;50.136;11.062;2023-01-29T16:51:54;98964.00;;;-1.60
7389;BMP180;3735;50.136;11.062;2023-01-29T16:54:26;98952.00;;;-1.70